sensor_id;sensor_type;location;lat;lon;timestamp;P1;durP1;ratioP1;P2;durP2;ratioP2
44722;SDS011;30451;48.638;10.624;2023-05-10T00:00:23;1.60;;;1.00;;
44722;SDS011;30451;48.638;10.624;2023-05-10T00:02:49;2.13;;;1.27;;
44722;SDS011;30451;48.638;10.624;2023-05-10T00:05:14;1.60;;;1.10;;
44722;SDS011;30451;48.638;10.624;2023-05-10T00:07:40;1.92;;;1.10;;
44722;SDS011;30451;48.638;10.624;2023-05-10T00:10:09;1.55;;;0.95;;
44722;SDS011;30451;48.638;10.624;2023-05-10T00:12:36;2.08;;;1.20;;
44722;SDS011;30451;48.638;10.624;2023-05-10T00:15:01;1.77;;;1.30;;
44722;SDS011;30451;48.638;10.624;2023-05-10T00:17:27;1.60;;;1.00;;
44722;SDS011;30451;48.638;10.624;2023-05-10T00:19:53;1.80;;;1.08;;
44722;SDS011;30451;48.638;10.624;2023-05-10T00:22:19;1.73;;;1.25;;
44722;SDS011;30451;48.638;10.624;2023-05-10T00:24:45;2.13;;;1.25;;
44722;SDS011;30451;48.638;10.624;2023-05-10T00:27:11;1.95;;;1.20;;
44722;SDS011;30451;48.638;10.624;2023-05-10T00:29:36;1.75;;;1.10;;
44722;SDS011;30451;48.638;10.624;2023-05-10T00:32:02;1.73;;;1.05;;
44722;SDS011;30451;48.638;10.624;2023-05-10T00:34:27;1.55;;;1.08;;
44722;SDS011;30451;48.638;10.624;2023-05-10T00:36:53;1.52;;;1.00;;
44722;SDS011;30451;48.638;10.624;2023-05-10T00:39:19;1.40;;;0.93;;
44722;SDS011;30451;48.638;10.624;2023-05-10T00:41:45;1.92;;;1.10;;
44722;SDS011;30451;48.638;10.624;2023-05-10T00:44:10;1.20;;;0.90;;
44722;SDS011;30451;48.638;10.624;2023-05-10T00:46:36;1.67;;;1.10;;
44722;SDS011;30451;48.638;10.624;2023-05-10T00:49:02;2.08;;;1.30;;
44722;SDS011;30451;48.638;10.624;2023-05-10T00:51:27;1.60;;;1.10;;
44722;SDS011;30451;48.638;10.624;2023-05-10T00:53:53;2.40;;;1.38;;
44722;SDS011;30451;48.638;10.624;2023-05-10T00:56:20;2.08;;;1.10;;
44722;SDS011;30451;48.638;10.624;2023-05-10T00:58:48;1.85;;;1.17;;
44722;SDS011;30451;48.638;10.624;2023-05-10T01:01:14;1.80;;;1.23;;
44722;SDS011;30451;48.638;10.624;2023-05-10T01:03:39;1.70;;;1.10;;
44722;SDS011;30451;48.638;10.624;2023-05-10T01:06:05;2.08;;;1.10;;
44722;SDS011;30451;48.638;10.624;2023-05-10T01:08:31;1.92;;;1.20;;
44722;SDS011;30451;48.638;10.624;2023-05-10T01:10:57;1.63;;;1.00;;
44722;SDS011;30451;48.638;10.624;2023-05-10T01:13:44;1.60;;;1.10;;
44722;SDS011;30451;48.638;10.624;2023-05-10T01:16:12;2.05;;;1.15;;
44722;SDS011;30451;48.638;10.624;2023-05-10T01:18:39;2.00;;;1.20;;
44722;SDS011;30451;48.638;10.624;2023-05-10T01:21:27;1.58;;;1.15;;
44722;SDS011;30451;48.638;10.624;2023-05-10T01:27:14;2.22;;;1.45;;
44722;SDS011;30451;48.638;10.624;2023-05-10T01:32:27;1.38;;;1.02;;
44722;SDS011;30451;48.638;10.624;2023-05-10T01:43:26;1.92;;;1.10;;
44722;SDS011;30451;48.638;10.624;2023-05-10T01:46:01;1.85;;;1.00;;
44722;SDS011;30451;48.638;10.624;2023-05-10T01:48:35;1.92;;;1.17;;
44722;SDS011;30451;48.638;10.624;2023-05-10T01:51:05;1.42;;;1.00;;
44722;SDS011;30451;48.638;10.624;2023-05-10T01:53:31;1.85;;;1.10;;
44722;SDS011;30451;48.638;10.624;2023-05-10T01:56:02;1.83;;;1.08;;
44722;SDS011;30451;48.638;10.624;2023-05-10T01:58:30;1.75;;;1.00;;
44722;SDS011;30451;48.638;10.624;2023-05-10T02:01:00;1.27;;;1.00;;
44722;SDS011;30451;48.638;10.624;2023-05-10T02:03:28;1.73;;;1.10;;
44722;SDS011;30451;48.638;10.624;2023-05-10T02:05:56;1.50;;;0.93;;
44722;SDS011;30451;48.638;10.624;2023-05-10T02:08:22;1.88;;;1.13;;
44722;SDS011;30451;48.638;10.624;2023-05-10T02:10:50;1.83;;;1.20;;
44722;SDS011;30451;48.638;10.624;2023-05-10T02:13:18;1.60;;;1.00;;
44722;SDS011;30451;48.638;10.624;2023-05-10T02:15:45;1.35;;;1.05;;
44722;SDS011;30451;48.638;10.624;2023-05-10T02:18:13;1.40;;;1.05;;
44722;SDS011;30451;48.638;10.624;2023-05-10T02:20:40;1.83;;;1.00;;
44722;SDS011;30451;48.638;10.624;2023-05-10T02:23:08;1.40;;;1.00;;
44722;SDS011;30451;48.638;10.624;2023-05-10T02:25:34;1.83;;;1.10;;
44722;SDS011;30451;48.638;10.624;2023-05-10T02:28:01;0.90;;;0.77;;
44722;SDS011;30451;48.638;10.624;2023-05-10T02:30:29;1.67;;;1.02;;
44722;SDS011;30451;48.638;10.624;2023-05-10T02:32:57;1.40;;;0.90;;
44722;SDS011;30451;48.638;10.624;2023-05-10T02:35:24;1.40;;;1.10;;
44722;SDS011;30451;48.638;10.624;2023-05-10T02:37:51;1.48;;;1.00;;
44722;SDS011;30451;48.638;10.624;2023-05-10T02:40:18;1.50;;;1.02;;
44722;SDS011;30451;48.638;10.624;2023-05-10T02:42:46;1.83;;;1.23;;
44722;SDS011;30451;48.638;10.624;2023-05-10T02:45:15;1.35;;;0.98;;
44722;SDS011;30451;48.638;10.624;2023-05-10T02:47:44;1.48;;;0.90;;
44722;SDS011;30451;48.638;10.624;2023-05-10T02:50:10;1.40;;;1.05;;
44722;SDS011;30451;48.638;10.624;2023-05-10T02:52:39;1.55;;;0.98;;
44722;SDS011;30451;48.638;10.624;2023-05-10T02:55:09;1.33;;;1.00;;
44722;SDS011;30451;48.638;10.624;2023-05-10T02:57:38;2.28;;;1.20;;
44722;SDS011;30451;48.638;10.624;2023-05-10T03:00:08;1.25;;;0.90;;
44722;SDS011;30451;48.638;10.624;2023-05-10T03:02:34;1.55;;;1.05;;
44722;SDS011;30451;48.638;10.624;2023-05-10T03:05:01;1.58;;;1.08;;
44722;SDS011;30451;48.638;10.624;2023-05-10T03:07:27;1.60;;;1.20;;
44722;SDS011;30451;48.638;10.624;2023-05-10T03:09:53;1.35;;;0.90;;
44722;SDS011;30451;48.638;10.624;2023-05-10T03:15:17;1.70;;;0.80;;
44722;SDS011;30451;48.638;10.624;2023-05-10T03:18:08;1.90;;;1.00;;
44722;SDS011;30451;48.638;10.624;2023-05-10T03:20:39;2.08;;;1.27;;
44722;SDS011;30451;48.638;10.624;2023-05-10T03:23:12;1.67;;;1.10;;
44722;SDS011;30451;48.638;10.624;2023-05-10T03:25:46;1.60;;;0.90;;
44722;SDS011;30451;48.638;10.624;2023-05-10T03:28:14;1.30;;;0.90;;
44722;SDS011;30451;48.638;10.624;2023-05-10T03:30:42;1.48;;;1.00;;
44722;SDS011;30451;48.638;10.624;2023-05-10T03:33:08;1.45;;;0.98;;
44722;SDS011;30451;48.638;10.624;2023-05-10T03:35:34;1.02;;;0.82;;
44722;SDS011;30451;48.638;10.624;2023-05-10T03:38:00;1.40;;;0.90;;
44722;SDS011;30451;48.638;10.624;2023-05-10T03:40:26;1.33;;;0.90;;
44722;SDS011;30451;48.638;10.624;2023-05-10T03:42:54;1.23;;;0.80;;
44722;SDS011;30451;48.638;10.624;2023-05-10T03:45:20;1.45;;;0.90;;
44722;SDS011;30451;48.638;10.624;2023-05-10T03:47:46;1.92;;;1.15;;
44722;SDS011;30451;48.638;10.624;2023-05-10T03:50:11;1.50;;;1.10;;
44722;SDS011;30451;48.638;10.624;2023-05-10T03:52:37;1.30;;;0.80;;
44722;SDS011;30451;48.638;10.624;2023-05-10T03:55:04;1.45;;;0.90;;
44722;SDS011;30451;48.638;10.624;2023-05-10T03:57:30;1.33;;;0.90;;
44722;SDS011;30451;48.638;10.624;2023-05-10T03:59:56;1.42;;;0.90;;
44722;SDS011;30451;48.638;10.624;2023-05-10T04:02:21;1.00;;;0.90;;
44722;SDS011;30451;48.638;10.624;2023-05-10T04:04:47;1.17;;;0.90;;
44722;SDS011;30451;48.638;10.624;2023-05-10T04:07:13;1.35;;;0.90;;
44722;SDS011;30451;48.638;10.624;2023-05-10T04:09:39;1.20;;;0.80;;
44722;SDS011;30451;48.638;10.624;2023-05-10T04:12:04;1.25;;;0.90;;
44722;SDS011;30451;48.638;10.624;2023-05-10T04:14:30;0.85;;;0.73;;
44722;SDS011;30451;48.638;10.624;2023-05-10T04:16:56;1.20;;;0.90;;
44722;SDS011;30451;48.638;10.624;2023-05-10T04:19:22;1.55;;;0.90;;
44722;SDS011;30451;48.638;10.624;2023-05-10T04:21:47;1.35;;;0.88;;
44722;SDS011;30451;48.638;10.624;2023-05-10T04:24:13;1.23;;;1.00;;
44722;SDS011;30451;48.638;10.624;2023-05-10T04:26:38;1.05;;;0.70;;
44722;SDS011;30451;48.638;10.624;2023-05-10T04:29:04;0.82;;;0.77;;
44722;SDS011;30451;48.638;10.624;2023-05-10T04:31:30;1.33;;;0.90;;
44722;SDS011;30451;48.638;10.624;2023-05-10T04:33:55;1.30;;;0.90;;
44722;SDS011;30451;48.638;10.624;2023-05-10T04:36:21;1.15;;;0.90;;
44722;SDS011;30451;48.638;10.624;2023-05-10T04:38:46;1.00;;;0.73;;
44722;SDS011;30451;48.638;10.624;2023-05-10T04:41:12;1.67;;;1.00;;
44722;SDS011;30451;48.638;10.624;2023-05-10T04:43:38;1.42;;;0.88;;
44722;SDS011;30451;48.638;10.624;2023-05-10T04:46:03;0.70;;;0.70;;
44722;SDS011;30451;48.638;10.624;2023-05-10T04:48:29;1.10;;;0.80;;
44722;SDS011;30451;48.638;10.624;2023-05-10T04:50:55;1.83;;;0.90;;
44722;SDS011;30451;48.638;10.624;2023-05-10T04:53:21;1.42;;;0.82;;
44722;SDS011;30451;48.638;10.624;2023-05-10T04:55:47;0.73;;;0.73;;
44722;SDS011;30451;48.638;10.624;2023-05-10T04:58:13;1.30;;;0.80;;
44722;SDS011;30451;48.638;10.624;2023-05-10T05:00:39;1.08;;;0.80;;
44722;SDS011;30451;48.638;10.624;2023-05-10T05:03:05;1.38;;;0.80;;
44722;SDS011;30451;48.638;10.624;2023-05-10T05:05:31;1.17;;;0.75;;
44722;SDS011;30451;48.638;10.624;2023-05-10T05:07:56;1.30;;;0.80;;
44722;SDS011;30451;48.638;10.624;2023-05-10T05:10:22;1.27;;;0.82;;
44722;SDS011;30451;48.638;10.624;2023-05-10T05:12:47;1.30;;;0.75;;
44722;SDS011;30451;48.638;10.624;2023-05-10T05:15:13;0.85;;;0.80;;
44722;SDS011;30451;48.638;10.624;2023-05-10T05:17:40;1.10;;;0.80;;
44722;SDS011;30451;48.638;10.624;2023-05-10T05:20:06;1.65;;;0.90;;
44722;SDS011;30451;48.638;10.624;2023-05-10T05:22:32;1.02;;;0.80;;
44722;SDS011;30451;48.638;10.624;2023-05-10T05:24:57;1.15;;;0.70;;
44722;SDS011;30451;48.638;10.624;2023-05-10T05:27:23;1.05;;;0.70;;
44722;SDS011;30451;48.638;10.624;2023-05-10T05:29:54;0.70;;;0.70;;
44722;SDS011;30451;48.638;10.624;2023-05-10T05:32:21;1.90;;;0.70;;
44722;SDS011;30451;48.638;10.624;2023-05-10T05:34:47;1.20;;;1.00;;
44722;SDS011;30451;48.638;10.624;2023-05-10T05:37:13;0.80;;;0.77;;
44722;SDS011;30451;48.638;10.624;2023-05-10T05:39:43;1.27;;;0.77;;
44722;SDS011;30451;48.638;10.624;2023-05-10T05:42:09;1.23;;;0.80;;
44722;SDS011;30451;48.638;10.624;2023-05-10T05:44:36;1.13;;;0.70;;
44722;SDS011;30451;48.638;10.624;2023-05-10T05:47:02;1.30;;;0.70;;
44722;SDS011;30451;48.638;10.624;2023-05-10T05:49:29;1.02;;;0.82;;
44722;SDS011;30451;48.638;10.624;2023-05-10T05:51:58;1.65;;;0.70;;
44722;SDS011;30451;48.638;10.624;2023-05-10T05:54:24;0.88;;;0.70;;
44722;SDS011;30451;48.638;10.624;2023-05-10T05:56:50;1.55;;;0.80;;
44722;SDS011;30451;48.638;10.624;2023-05-10T05:59:15;1.00;;;0.60;;
44722;SDS011;30451;48.638;10.624;2023-05-10T06:01:42;0.75;;;0.70;;
44722;SDS011;30451;48.638;10.624;2023-05-10T06:04:07;0.85;;;0.70;;
44722;SDS011;30451;48.638;10.624;2023-05-10T06:06:33;0.85;;;0.60;;
44722;SDS011;30451;48.638;10.624;2023-05-10T06:08:58;1.20;;;0.70;;
44722;SDS011;30451;48.638;10.624;2023-05-10T06:11:24;0.70;;;0.70;;
44722;SDS011;30451;48.638;10.624;2023-05-10T06:13:50;0.98;;;0.70;;
44722;SDS011;30451;48.638;10.624;2023-05-10T06:16:16;1.88;;;0.77;;
44722;SDS011;30451;48.638;10.624;2023-05-10T06:18:42;0.82;;;0.70;;
44722;SDS011;30451;48.638;10.624;2023-05-10T06:21:08;0.88;;;0.70;;
44722;SDS011;30451;48.638;10.624;2023-05-10T06:23:34;1.10;;;0.60;;
44722;SDS011;30451;48.638;10.624;2023-05-10T06:26:00;1.27;;;0.70;;
44722;SDS011;30451;48.638;10.624;2023-05-10T06:28:26;0.93;;;0.63;;
44722;SDS011;30451;48.638;10.624;2023-05-10T06:30:51;0.65;;;0.63;;
44722;SDS011;30451;48.638;10.624;2023-05-10T06:33:17;0.90;;;0.63;;
44722;SDS011;30451;48.638;10.624;2023-05-10T06:35:43;0.80;;;0.60;;
44722;SDS011;30451;48.638;10.624;2023-05-10T06:38:08;1.17;;;0.80;;
44722;SDS011;30451;48.638;10.624;2023-05-10T06:40:34;0.80;;;0.63;;
44722;SDS011;30451;48.638;10.624;2023-05-10T06:43:00;1.27;;;0.70;;
44722;SDS011;30451;48.638;10.624;2023-05-10T06:45:26;0.70;;;0.60;;
44722;SDS011;30451;48.638;10.624;2023-05-10T06:47:52;1.40;;;0.80;;
44722;SDS011;30451;48.638;10.624;2023-05-10T06:50:17;1.08;;;0.70;;
44722;SDS011;30451;48.638;10.624;2023-05-10T06:52:43;1.55;;;0.70;;
44722;SDS011;30451;48.638;10.624;2023-05-10T06:55:09;1.10;;;0.70;;
44722;SDS011;30451;48.638;10.624;2023-05-10T06:57:34;1.00;;;0.70;;
44722;SDS011;30451;48.638;10.624;2023-05-10T07:00:00;0.68;;;0.65;;
44722;SDS011;30451;48.638;10.624;2023-05-10T07:02:28;1.23;;;0.70;;
44722;SDS011;30451;48.638;10.624;2023-05-10T07:04:54;0.95;;;0.68;;
44722;SDS011;30451;48.638;10.624;2023-05-10T07:07:20;1.27;;;0.70;;
44722;SDS011;30451;48.638;10.624;2023-05-10T07:09:46;0.85;;;0.60;;
44722;SDS011;30451;48.638;10.624;2023-05-10T07:12:11;1.38;;;0.80;;
44722;SDS011;30451;48.638;10.624;2023-05-10T07:14:37;1.02;;;0.70;;
44722;SDS011;30451;48.638;10.624;2023-05-10T07:17:02;1.08;;;0.70;;
44722;SDS011;30451;48.638;10.624;2023-05-10T07:19:28;1.25;;;0.60;;
44722;SDS011;30451;48.638;10.624;2023-05-10T07:21:54;0.95;;;0.70;;
44722;SDS011;30451;48.638;10.624;2023-05-10T07:24:20;0.60;;;0.60;;
44722;SDS011;30451;48.638;10.624;2023-05-10T07:26:46;0.98;;;0.65;;
44722;SDS011;30451;48.638;10.624;2023-05-10T07:29:11;0.73;;;0.60;;
44722;SDS011;30451;48.638;10.624;2023-05-10T07:31:37;1.10;;;0.60;;
44722;SDS011;30451;48.638;10.624;2023-05-10T07:34:03;0.75;;;0.63;;
44722;SDS011;30451;48.638;10.624;2023-05-10T07:36:28;0.98;;;0.60;;
44722;SDS011;30451;48.638;10.624;2023-05-10T07:38:54;1.02;;;0.70;;
44722;SDS011;30451;48.638;10.624;2023-05-10T07:41:20;0.73;;;0.60;;
44722;SDS011;30451;48.638;10.624;2023-05-10T07:43:47;0.88;;;0.60;;
44722;SDS011;30451;48.638;10.624;2023-05-10T07:46:12;0.60;;;0.60;;
44722;SDS011;30451;48.638;10.624;2023-05-10T07:48:38;0.80;;;0.60;;
44722;SDS011;30451;48.638;10.624;2023-05-10T07:51:04;0.93;;;0.52;;
44722;SDS011;30451;48.638;10.624;2023-05-10T07:53:31;0.52;;;0.52;;
44722;SDS011;30451;48.638;10.624;2023-05-10T07:55:57;0.40;;;0.40;;
44722;SDS011;30451;48.638;10.624;2023-05-10T07:58:24;1.20;;;0.90;;
44722;SDS011;30451;48.638;10.624;2023-05-10T08:00:50;0.77;;;0.65;;
44722;SDS011;30451;48.638;10.624;2023-05-10T08:03:15;0.73;;;0.60;;
44722;SDS011;30451;48.638;10.624;2023-05-10T08:05:41;0.80;;;0.65;;
44722;SDS011;30451;48.638;10.624;2023-05-10T08:08:07;0.80;;;0.60;;
44722;SDS011;30451;48.638;10.624;2023-05-10T08:10:32;0.57;;;0.57;;
44722;SDS011;30451;48.638;10.624;2023-05-10T08:12:58;0.77;;;0.60;;
44722;SDS011;30451;48.638;10.624;2023-05-10T08:15:24;0.80;;;0.70;;
44722;SDS011;30451;48.638;10.624;2023-05-10T08:17:51;1.05;;;0.73;;
44722;SDS011;30451;48.638;10.624;2023-05-10T08:20:16;0.82;;;0.60;;
44722;SDS011;30451;48.638;10.624;2023-05-10T08:22:44;0.90;;;0.70;;
44722;SDS011;30451;48.638;10.624;2023-05-10T08:25:10;0.50;;;0.50;;
44722;SDS011;30451;48.638;10.624;2023-05-10T08:27:36;0.85;;;0.70;;
44722;SDS011;30451;48.638;10.624;2023-05-10T08:30:02;1.05;;;0.60;;
44722;SDS011;30451;48.638;10.624;2023-05-10T08:32:28;0.63;;;0.55;;
44722;SDS011;30451;48.638;10.624;2023-05-10T08:34:53;0.85;;;0.55;;
44722;SDS011;30451;48.638;10.624;2023-05-10T08:37:19;0.50;;;0.50;;
44722;SDS011;30451;48.638;10.624;2023-05-10T08:39:45;0.55;;;0.55;;
44722;SDS011;30451;48.638;10.624;2023-05-10T08:42:12;0.50;;;0.50;;
44722;SDS011;30451;48.638;10.624;2023-05-10T08:44:44;0.63;;;0.60;;
44722;SDS011;30451;48.638;10.624;2023-05-10T08:47:13;0.90;;;0.55;;
44722;SDS011;30451;48.638;10.624;2023-05-10T08:49:41;0.63;;;0.63;;
44722;SDS011;30451;48.638;10.624;2023-05-10T08:52:08;0.57;;;0.52;;
44722;SDS011;30451;48.638;10.624;2023-05-10T08:54:37;0.50;;;0.50;;
44722;SDS011;30451;48.638;10.624;2023-05-10T08:57:03;0.45;;;0.45;;
44722;SDS011;30451;48.638;10.624;2023-05-10T08:59:29;0.77;;;0.63;;
44722;SDS011;30451;48.638;10.624;2023-05-10T09:01:58;1.10;;;0.50;;
44722;SDS011;30451;48.638;10.624;2023-05-10T09:06:50;0.90;;;0.60;;
44722;SDS011;30451;48.638;10.624;2023-05-10T09:09:16;0.43;;;0.40;;
44722;SDS011;30451;48.638;10.624;2023-05-10T09:11:43;0.60;;;0.50;;
44722;SDS011;30451;48.638;10.624;2023-05-10T09:14:09;1.17;;;0.65;;
44722;SDS011;30451;48.638;10.624;2023-05-10T09:16:37;0.80;;;0.60;;
44722;SDS011;30451;48.638;10.624;2023-05-10T09:19:02;0.57;;;0.50;;
44722;SDS011;30451;48.638;10.624;2023-05-10T09:21:28;0.90;;;0.70;;
44722;SDS011;30451;48.638;10.624;2023-05-10T09:23:56;0.82;;;0.70;;
44722;SDS011;30451;48.638;10.624;2023-05-10T09:26:21;1.15;;;0.57;;
44722;SDS011;30451;48.638;10.624;2023-05-10T09:28:56;0.40;;;0.40;;
44722;SDS011;30451;48.638;10.624;2023-05-10T09:31:24;0.80;;;0.52;;
44722;SDS011;30451;48.638;10.624;2023-05-10T09:34:07;0.90;;;0.55;;
44722;SDS011;30451;48.638;10.624;2023-05-10T09:36:33;0.88;;;0.57;;
44722;SDS011;30451;48.638;10.624;2023-05-10T09:38:58;0.95;;;0.57;;
44722;SDS011;30451;48.638;10.624;2023-05-10T09:41:24;0.50;;;0.50;;
44722;SDS011;30451;48.638;10.624;2023-05-10T09:43:50;0.63;;;0.50;;
44722;SDS011;30451;48.638;10.624;2023-05-10T09:46:21;0.50;;;0.50;;
44722;SDS011;30451;48.638;10.624;2023-05-10T09:48:47;0.60;;;0.50;;
44722;SDS011;30451;48.638;10.624;2023-05-10T09:51:23;1.25;;;0.65;;
44722;SDS011;30451;48.638;10.624;2023-05-10T09:56:38;0.60;;;0.50;;
44722;SDS011;30451;48.638;10.624;2023-05-10T09:59:05;0.55;;;0.50;;
44722;SDS011;30451;48.638;10.624;2023-05-10T10:01:33;0.60;;;0.60;;
44722;SDS011;30451;48.638;10.624;2023-05-10T10:04:02;0.75;;;0.60;;
44722;SDS011;30451;48.638;10.624;2023-05-10T10:06:29;0.50;;;0.50;;
44722;SDS011;30451;48.638;10.624;2023-05-10T10:08:59;0.80;;;0.60;;
44722;SDS011;30451;48.638;10.624;2023-05-10T10:11:25;0.50;;;0.50;;
44722;SDS011;30451;48.638;10.624;2023-05-10T10:13:50;0.50;;;0.45;;
44722;SDS011;30451;48.638;10.624;2023-05-10T10:16:16;0.50;;;0.50;;
44722;SDS011;30451;48.638;10.624;2023-05-10T10:18:42;0.50;;;0.50;;
44722;SDS011;30451;48.638;10.624;2023-05-10T10:21:08;0.63;;;0.50;;
44722;SDS011;30451;48.638;10.624;2023-05-10T10:23:37;0.73;;;0.65;;
44722;SDS011;30451;48.638;10.624;2023-05-10T10:26:03;0.40;;;0.40;;
44722;SDS011;30451;48.638;10.624;2023-05-10T10:28:39;0.85;;;0.50;;
44722;SDS011;30451;48.638;10.624;2023-05-10T10:31:23;0.70;;;0.60;;
44722;SDS011;30451;48.638;10.624;2023-05-10T10:34:07;0.63;;;0.50;;
44722;SDS011;30451;48.638;10.624;2023-05-10T10:36:43;0.50;;;0.50;;
44722;SDS011;30451;48.638;10.624;2023-05-10T10:39:11;0.57;;;0.50;;
44722;SDS011;30451;48.638;10.624;2023-05-10T10:49:49;0.50;;;0.50;;
44722;SDS011;30451;48.638;10.624;2023-05-10T10:57:31;0.50;;;0.50;;
44722;SDS011;30451;48.638;10.624;2023-05-10T11:02:46;0.73;;;0.52;;
44722;SDS011;30451;48.638;10.624;2023-05-10T11:05:25;0.40;;;0.40;;
44722;SDS011;30451;48.638;10.624;2023-05-10T11:07:58;0.50;;;0.50;;
44722;SDS011;30451;48.638;10.624;2023-05-10T11:10:25;0.50;;;0.47;;
44722;SDS011;30451;48.638;10.624;2023-05-10T11:12:52;0.60;;;0.40;;
44722;SDS011;30451;48.638;10.624;2023-05-10T11:15:32;0.30;;;0.30;;
44722;SDS011;30451;48.638;10.624;2023-05-10T11:18:00;0.52;;;0.40;;
44722;SDS011;30451;48.638;10.624;2023-05-10T11:20:42;0.30;;;0.30;;
44722;SDS011;30451;48.638;10.624;2023-05-10T11:23:12;0.38;;;0.30;;
44722;SDS011;30451;48.638;10.624;2023-05-10T11:25:41;0.77;;;0.60;;
44722;SDS011;30451;48.638;10.624;2023-05-10T11:28:08;0.40;;;0.40;;
44722;SDS011;30451;48.638;10.624;2023-05-10T11:30:34;0.60;;;0.50;;
44722;SDS011;30451;48.638;10.624;2023-05-10T11:33:00;0.70;;;0.50;;
44722;SDS011;30451;48.638;10.624;2023-05-10T11:35:27;0.60;;;0.50;;
44722;SDS011;30451;48.638;10.624;2023-05-10T11:37:52;0.70;;;0.50;;
44722;SDS011;30451;48.638;10.624;2023-05-10T11:40:18;1.08;;;0.40;;
44722;SDS011;30451;48.638;10.624;2023-05-10T11:42:46;0.85;;;0.50;;
44722;SDS011;30451;48.638;10.624;2023-05-10T11:45:11;1.17;;;0.50;;
44722;SDS011;30451;48.638;10.624;2023-05-10T11:47:37;0.40;;;0.40;;
44722;SDS011;30451;48.638;10.624;2023-05-10T11:50:04;0.47;;;0.43;;
44722;SDS011;30451;48.638;10.624;2023-05-10T11:52:35;0.77;;;0.40;;
44722;SDS011;30451;48.638;10.624;2023-05-10T11:55:02;1.75;;;0.47;;
44722;SDS011;30451;48.638;10.624;2023-05-10T11:57:28;0.70;;;0.50;;
44722;SDS011;30451;48.638;10.624;2023-05-10T11:59:53;0.60;;;0.40;;
44722;SDS011;30451;48.638;10.624;2023-05-10T12:02:20;0.50;;;0.50;;
44722;SDS011;30451;48.638;10.624;2023-05-10T12:04:45;0.50;;;0.40;;
44722;SDS011;30451;48.638;10.624;2023-05-10T12:07:11;0.68;;;0.47;;
44722;SDS011;30451;48.638;10.624;2023-05-10T12:09:41;0.63;;;0.43;;
44722;SDS011;30451;48.638;10.624;2023-05-10T12:12:27;2.10;;;0.50;;
44722;SDS011;30451;48.638;10.624;2023-05-10T12:14:59;0.40;;;0.40;;
44722;SDS011;30451;48.638;10.624;2023-05-10T12:17:28;1.80;;;0.50;;
44722;SDS011;30451;48.638;10.624;2023-05-10T12:19:54;0.47;;;0.45;;
44722;SDS011;30451;48.638;10.624;2023-05-10T12:22:37;0.40;;;0.40;;
44722;SDS011;30451;48.638;10.624;2023-05-10T12:25:03;0.50;;;0.40;;
44722;SDS011;30451;48.638;10.624;2023-05-10T12:27:31;0.50;;;0.40;;
44722;SDS011;30451;48.638;10.624;2023-05-10T12:29:58;0.87;;;0.50;;
44722;SDS011;30451;48.638;10.624;2023-05-10T12:32:37;0.60;;;0.40;;
44722;SDS011;30451;48.638;10.624;2023-05-10T12:35:06;0.40;;;0.40;;
44722;SDS011;30451;48.638;10.624;2023-05-10T12:37:32;1.40;;;0.55;;
44722;SDS011;30451;48.638;10.624;2023-05-10T12:40:03;1.05;;;0.45;;
44722;SDS011;30451;48.638;10.624;2023-05-10T12:42:33;0.73;;;0.52;;
44722;SDS011;30451;48.638;10.624;2023-05-10T12:45:00;0.60;;;0.50;;
44722;SDS011;30451;48.638;10.624;2023-05-10T12:47:27;0.57;;;0.50;;
44722;SDS011;30451;48.638;10.624;2023-05-10T12:49:52;0.63;;;0.50;;
44722;SDS011;30451;48.638;10.624;2023-05-10T12:52:18;1.10;;;0.47;;
44722;SDS011;30451;48.638;10.624;2023-05-10T12:54:43;0.57;;;0.50;;
44722;SDS011;30451;48.638;10.624;2023-05-10T12:57:09;0.40;;;0.40;;
44722;SDS011;30451;48.638;10.624;2023-05-10T12:59:35;0.57;;;0.50;;
44722;SDS011;30451;48.638;10.624;2023-05-10T13:02:00;0.40;;;0.40;;
44722;SDS011;30451;48.638;10.624;2023-05-10T13:04:26;0.93;;;0.70;;
44722;SDS011;30451;48.638;10.624;2023-05-10T13:06:52;0.75;;;0.50;;
44722;SDS011;30451;48.638;10.624;2023-05-10T13:09:17;0.73;;;0.50;;
44722;SDS011;30451;48.638;10.624;2023-05-10T13:11:43;0.45;;;0.40;;
44722;SDS011;30451;48.638;10.624;2023-05-10T13:14:10;0.93;;;0.50;;
44722;SDS011;30451;48.638;10.624;2023-05-10T13:16:35;1.23;;;0.60;;
44722;SDS011;30451;48.638;10.624;2023-05-10T13:19:01;1.17;;;0.57;;
44722;SDS011;30451;48.638;10.624;2023-05-10T13:21:27;0.43;;;0.43;;
44722;SDS011;30451;48.638;10.624;2023-05-10T13:23:53;0.40;;;0.40;;
44722;SDS011;30451;48.638;10.624;2023-05-10T13:26:19;0.73;;;0.50;;
44722;SDS011;30451;48.638;10.624;2023-05-10T13:28:45;0.35;;;0.35;;
44722;SDS011;30451;48.638;10.624;2023-05-10T13:31:10;0.98;;;0.45;;
44722;SDS011;30451;48.638;10.624;2023-05-10T13:33:36;1.75;;;0.50;;
44722;SDS011;30451;48.638;10.624;2023-05-10T13:36:02;0.75;;;0.45;;
44722;SDS011;30451;48.638;10.624;2023-05-10T13:38:27;0.73;;;0.50;;
44722;SDS011;30451;48.638;10.624;2023-05-10T13:40:53;0.30;;;0.30;;
44722;SDS011;30451;48.638;10.624;2023-05-10T13:43:19;0.60;;;0.40;;
44722;SDS011;30451;48.638;10.624;2023-05-10T13:45:45;0.68;;;0.45;;
44722;SDS011;30451;48.638;10.624;2023-05-10T13:48:10;1.48;;;0.70;;
44722;SDS011;30451;48.638;10.624;2023-05-10T13:50:36;0.73;;;0.50;;
44722;SDS011;30451;48.638;10.624;2023-05-10T13:53:01;1.25;;;0.60;;
44722;SDS011;30451;48.638;10.624;2023-05-10T13:55:27;0.80;;;0.47;;
44722;SDS011;30451;48.638;10.624;2023-05-10T13:57:53;1.40;;;0.50;;
44722;SDS011;30451;48.638;10.624;2023-05-10T14:00:19;0.45;;;0.40;;
44722;SDS011;30451;48.638;10.624;2023-05-10T14:02:44;1.33;;;0.82;;
44722;SDS011;30451;48.638;10.624;2023-05-10T14:05:10;0.38;;;0.32;;
44722;SDS011;30451;48.638;10.624;2023-05-10T14:07:36;1.58;;;0.50;;
44722;SDS011;30451;48.638;10.624;2023-05-10T14:10:01;0.88;;;0.50;;
44722;SDS011;30451;48.638;10.624;2023-05-10T14:12:27;1.02;;;0.60;;
44722;SDS011;30451;48.638;10.624;2023-05-10T14:14:53;0.93;;;0.52;;
44722;SDS011;30451;48.638;10.624;2023-05-10T14:17:18;0.85;;;0.50;;
44722;SDS011;30451;48.638;10.624;2023-05-10T14:19:44;0.63;;;0.32;;
44722;SDS011;30451;48.638;10.624;2023-05-10T14:22:10;2.42;;;0.57;;
44722;SDS011;30451;48.638;10.624;2023-05-10T14:24:35;2.10;;;0.60;;
44722;SDS011;30451;48.638;10.624;2023-05-10T14:27:01;0.70;;;0.40;;
44722;SDS011;30451;48.638;10.624;2023-05-10T14:29:26;2.42;;;0.60;;
44722;SDS011;30451;48.638;10.624;2023-05-10T14:31:52;1.52;;;0.60;;
44722;SDS011;30451;48.638;10.624;2023-05-10T14:34:18;1.88;;;0.52;;
44722;SDS011;30451;48.638;10.624;2023-05-10T14:36:43;2.20;;;0.70;;
44722;SDS011;30451;48.638;10.624;2023-05-10T14:39:09;2.38;;;0.85;;
44722;SDS011;30451;48.638;10.624;2023-05-10T14:41:37;1.92;;;0.50;;
44722;SDS011;30451;48.638;10.624;2023-05-10T14:44:04;1.40;;;0.57;;
44722;SDS011;30451;48.638;10.624;2023-05-10T14:46:29;1.85;;;0.60;;
44722;SDS011;30451;48.638;10.624;2023-05-10T14:48:55;1.67;;;0.60;;
44722;SDS011;30451;48.638;10.624;2023-05-10T14:51:21;1.52;;;0.65;;
44722;SDS011;30451;48.638;10.624;2023-05-10T14:53:47;1.65;;;0.65;;
44722;SDS011;30451;48.638;10.624;2023-05-10T14:56:14;1.23;;;0.50;;
44722;SDS011;30451;48.638;10.624;2023-05-10T14:58:40;2.47;;;0.80;;
44722;SDS011;30451;48.638;10.624;2023-05-10T15:01:05;2.53;;;0.65;;
44722;SDS011;30451;48.638;10.624;2023-05-10T15:03:31;1.85;;;0.63;;
44722;SDS011;30451;48.638;10.624;2023-05-10T15:05:57;1.40;;;0.70;;
44722;SDS011;30451;48.638;10.624;2023-05-10T15:08:23;1.00;;;0.60;;
44722;SDS011;30451;48.638;10.624;2023-05-10T15:10:49;1.08;;;0.50;;